Time;durP1;ratioP1;P1;durP2;ratioP2;P2;SDS_P1;SDS_P2;PMS_P1;PMS_P2;Temp;Humidity;BMP_temperature;BMP_pressure;BME280_temperature;BME280_humidity;BME280_pressure;Samples;Min_cycle;Max_cycle;Signal;HPM_P1;HPM_P2
2024/01/28 00:01:43;;;;;;;67.10;25.20;;;;;;;0.18;100.00;102000.79;107439;1245;72735;-74
2024/01/28 00:04:12;;;;;;;66.50;26.00;;;;;;;0.18;100.00;102000.77;107304;1246;59711;-75
2024/01/28 00:06:41;;;;;;;63.80;24.60;;;;;;;0.17;100.00;102001.45;107427;1241;59465;-74
2024/01/28 00:09:10;;;;;;;66.90;25.20;;;;;;;0.17;100.00;102007.63;107461;1241;72977;-74
2024/01/28 00:11:39;;;;;;;56.70;22.80;;;;;;;0.16;100.00;102011.56;107330;1250;72013;-76
2024/01/28 00:14:09;;;;;;;58.50;23.10;;;;;;;0.15;100.00;102017.57;107436;1255;68091;-75
2024/01/28 00:16:38;;;;;;;50.40;21.80;;;;;;;0.14;100.00;102018.62;107421;1252;71010;-75
2024/01/28 00:19:09;;;;;;;49.50;22.20;;;;;;;0.12;100.00;102018.11;107425;1251;60277;-74
2024/01/28 00:21:38;;;;;;;53.00;22.20;;;;;;;0.11;100.00;102012.29;107465;1241;60993;-74
2024/01/28 00:24:07;;;;;;;51.60;22.30;;;;;;;0.09;100.00;102014.71;107465;1242;73772;-76
2024/01/28 00:26:40;;;;;;;71.90;27.50;;;;;;;0.09;100.00;102014.90;107840;1242;72680;-74
2024/01/28 00:29:09;;;;;;;68.90;26.60;;;;;;;0.10;100.00;102016.77;107498;1245;70125;-76
2024/01/28 00:31:38;;;;;;;56.80;22.20;;;;;;;0.12;100.00;102015.04;107138;1255;71094;-75
2024/01/28 00:34:07;;;;;;;52.10;22.70;;;;;;;0.14;100.00;102016.57;107343;1245;59628;-74
2024/01/28 00:36:36;;;;;;;65.90;26.30;;;;;;;0.13;100.00;102017.77;107315;1245;58995;-74
2024/01/28 00:39:05;;;;;;;72.80;27.30;;;;;;;0.11;100.00;102018.30;107291;1250;73231;-75
2024/01/28 00:41:33;;;;;;;79.90;29.60;;;;;;;0.13;100.00;102017.09;107212;1242;71266;-75
2024/01/28 00:44:05;;;;;;;138.20;51.30;;;;;;;0.16;100.00;102021.17;107285;1245;71914;-74
2024/01/28 00:46:34;;;;;;;109.90;37.70;;;;;;;0.19;100.00;102020.98;107168;1246;71798;-75
2024/01/28 00:49:03;;;;;;;104.20;38.00;;;;;;;0.22;100.00;102018.89;107213;1253;60966;-75
2024/01/28 00:51:33;;;;;;;116.40;37.00;;;;;;;0.26;100.00;102018.85;107277;1253;60106;-75
2024/01/28 00:54:02;;;;;;;105.30;35.90;;;;;;;0.29;100.00;102019.17;107292;1244;73258;-75
2024/01/28 00:56:30;;;;;;;107.10;36.30;;;;;;;0.28;100.00;102022.95;107168;1245;72483;-75
2024/01/28 00:58:59;;;;;;;106.40;35.70;;;;;;;0.33;100.00;102022.21;107251;1256;68192;-75
2024/01/28 01:01:28;;;;;;;104.30;38.20;;;;;;;0.28;100.00;102023.64;107151;1243;72700;-75
2024/01/28 01:03:58;;;;;;;106.20;38.30;;;;;;;0.34;100.00;102021.52;107202;1249;59629;-76
2024/01/28 01:06:27;;;;;;;104.10;39.80;;;;;;;0.38;100.00;102024.73;107151;1249;59155;-74
2024/01/28 01:08:56;;;;;;;98.10;32.80;;;;;;;0.38;100.00;102023.55;107191;1245;71413;-75
2024/01/28 01:11:25;;;;;;;100.20;35.90;;;;;;;0.41;100.00;102023.34;107174;1256;70149;-75
2024/01/28 01:13:54;;;;;;;100.10;35.30;;;;;;;0.42;100.00;102026.27;107185;1253;69667;-74
2024/01/28 01:16:22;;;;;;;102.30;39.00;;;;;;;0.45;100.00;102024.34;107173;1256;74404;-74
2024/01/28 01:18:51;;;;;;;103.80;39.20;;;;;;;0.44;100.00;102025.56;107166;1245;59963;-76
2024/01/28 01:21:20;;;;;;;107.40;40.70;;;;;;;0.44;100.00;102028.63;107201;1244;59599;-76
2024/01/28 01:23:49;;;;;;;122.60;42.70;;;;;;;0.42;100.00;102031.73;107401;1252;71542;-75
2024/01/28 01:26:18;;;;;;;108.20;39.50;;;;;;;0.39;100.00;102035.20;107242;1246;72553;-75
2024/01/28 01:28:46;;;;;;;104.50;40.30;;;;;;;0.45;100.00;102035.66;107240;1255;70132;-76
2024/01/28 01:31:16;;;;;;;200.70;81.60;;;;;;;0.51;100.00;102036.45;107313;1253;72204;-75
2024/01/28 01:33:45;;;;;;;115.60;40.10;;;;;;;0.56;100.00;102035.88;107324;1250;61993;-75
2024/01/28 01:36:14;;;;;;;87.80;33.70;;;;;;;0.48;100.00;102035.27;107197;1244;61278;-74
2024/01/28 01:38:43;;;;;;;103.20;34.20;;;;;;;0.52;100.00;102038.69;107188;1253;74092;-74
2024/01/28 01:41:11;;;;;;;94.10;32.00;;;;;;;0.50;100.00;102034.23;107319;1256;72321;-74
2024/01/28 01:43:40;;;;;;;89.10;28.40;;;;;;;0.52;100.00;102036.27;107299;1245;69094;-79
2024/01/28 01:46:12;;;;;;;83.60;29.40;;;;;;;0.50;100.00;102034.74;107557;1244;72490;-76
2024/01/28 01:48:42;;;;;;;91.10;30.90;;;;;;;0.46;100.00;102036.69;108153;1245;60796;-76
2024/01/28 01:51:11;;;;;;;87.00;29.00;;;;;;;0.44;100.00;102035.84;107093;1248;60489;-76
2024/01/28 01:53:43;;;;;;;92.40;29.00;;;;;;;0.39;100.00;102039.64;107072;1255;72023;-76
2024/01/28 01:56:12;;;;;;;85.10;29.60;;;;;;;0.40;100.00;102037.23;107062;1246;70252;-76
2024/01/28 01:58:43;;;;;;;79.40;28.70;;;;;;;0.42;100.00;102039.96;106927;1248;67769;-77
2024/01/28 02:01:16;;;;;;;88.40;30.50;;;;;;;0.41;100.00;102042.21;106962;1248;73832;-76
2024/01/28 02:03:45;;;;;;;84.50;29.80;;;;;;;0.41;100.00;102045.13;106965;1253;60734;-76
2024/01/28 02:06:14;;;;;;;85.00;31.10;;;;;;;0.38;100.00;102048.06;107150;1245;59468;-76
2024/01/28 02:08:43;;;;;;;92.20;32.80;;;;;;;0.36;100.00;102050.81;107037;1245;70817;-77
2024/01/28 02:11:12;;;;;;;85.70;35.20;;;;;;;0.41;100.00;102050.44;107068;1246;70251;-77
2024/01/28 02:13:41;;;;;;;87.90;32.20;;;;;;;0.42;100.00;102053.85;107220;1245;69903;-76
2024/01/28 02:16:09;;;;;;;94.10;33.20;;;;;;;0.42;100.00;102058.30;107261;1251;74381;-75
2024/01/28 02:18:38;;;;;;;86.30;31.50;;;;;;;0.34;100.00;102060.77;107427;1256;61811;-75
2024/01/28 02:21:07;;;;;;;90.30;32.20;;;;;;;0.39;100.00;102064.00;107192;1255;59359;-76
2024/01/28 02:23:36;;;;;;;81.10;31.50;;;;;;;0.39;100.00;102065.36;107054;1256;71585;-80
2024/01/28 02:26:05;;;;;;;87.10;30.90;;;;;;;0.44;100.00;102067.88;107171;1246;70365;-76
2024/01/28 02:28:34;;;;;;;83.30;30.50;;;;;;;0.45;100.00;102066.51;107155;1253;70241;-74
2024/01/28 02:31:03;;;;;;;83.20;28.70;;;;;;;0.48;100.00;102068.71;107055;1252;74150;-74
2024/01/28 02:33:31;;;;;;;79.10;26.30;;;;;;;0.48;100.00;102070.59;107314;1246;62613;-76
2024/01/28 02:36:01;;;;;;;73.60;26.80;;;;;;;0.48;100.00;102074.70;107312;1244;61603;-75
2024/01/28 02:38:29;;;;;;;76.50;27.60;;;;;;;0.48;100.00;102081.05;107255;1255;73946;-76
2024/01/28 02:40:59;;;;;;;74.10;28.20;;;;;;;0.46;100.00;102086.21;107404;1256;70710;-77
2024/01/28 02:43:27;;;;;;;63.00;23.50;;;;;;;0.45;100.00;102086.39;107421;1244;70479;-75
2024/01/28 02:45:56;;;;;;;69.10;21.90;;;;;;;0.42;100.00;102083.85;107360;1256;74101;-76
2024/01/28 02:48:25;;;;;;;62.90;22.60;;;;;;;0.50;100.00;102086.85;107529;1246;60809;-76
2024/01/28 02:50:54;;;;;;;70.40;26.20;;;;;;;0.42;100.00;102090.70;107239;1246;60458;-76
2024/01/28 02:53:23;;;;;;;80.70;27.50;;;;;;;0.43;100.00;102091.55;107349;1245;70828;-76
2024/01/28 02:55:56;;;;;;;70.50;27.20;;;;;;;0.44;100.00;102093.42;107209;1256;70340;-75
2024/01/28 02:58:25;;;;;;;73.00;26.30;;;;;;;0.47;100.00;102095.80;107359;1244;69587;-76
2024/01/28 03:00:54;;;;;;;64.10;22.10;;;;;;;0.49;100.00;102097.67;107357;1255;71313;-75
2024/01/28 03:03:23;;;;;;;63.90;22.50;;;;;;;0.47;100.00;102101.98;107202;1245;59705;-75
2024/01/28 03:05:52;;;;;;;67.80;23.70;;;;;;;0.45;100.00;102107.98;107333;1252;61271;-75
2024/01/28 03:08:21;;;;;;;69.00;24.00;;;;;;;0.44;100.00;102112.11;107361;1245;72377;-75
2024/01/28 03:10:50;;;;;;;67.90;24.50;;;;;;;0.41;100.00;102114.02;107185;1247;70086;-75
2024/01/28 03:13:18;;;;;;;60.90;21.20;;;;;;;0.43;100.00;102117.43;107382;1244;70756;-76
2024/01/28 03:15:50;;;;;;;69.00;25.70;;;;;;;0.42;100.00;102117.27;107382;1256;74136;-76
2024/01/28 03:18:19;;;;;;;63.80;21.90;;;;;;;0.41;100.00;102120.20;107397;1245;59955;-75
2024/01/28 03:20:48;;;;;;;62.70;22.80;;;;;;;0.51;100.00;102124.57;107405;1245;59429;-74
2024/01/28 03:23:19;;;;;;;63.20;23.50;;;;;;;0.54;100.00;102130.54;107414;1246;72666;-74
2024/01/28 03:25:48;;;;;;;63.70;21.20;;;;;;;0.62;100.00;102135.11;107373;1252;69476;-74
2024/01/28 03:28:17;;;;;;;55.50;22.30;;;;;;;0.58;100.00;102136.34;107399;1246;70855;-74
2024/01/28 03:30:46;;;;;;;61.90;23.60;;;;;;;0.58;100.00;102140.11;107359;1253;74077;-74
2024/01/28 03:33:15;;;;;;;57.30;22.40;;;;;;;0.56;100.00;102138.07;107412;1246;62615;-75
2024/01/28 03:35:44;;;;;;;62.20;23.80;;;;;;;0.52;100.00;102141.87;107407;1244;59182;-75
2024/01/28 03:38:12;;;;;;;54.60;21.20;;;;;;;0.48;100.00;102144.30;107442;1245;73467;-75
2024/01/28 03:40:43;;;;;;;58.30;21.90;;;;;;;0.52;100.00;102147.88;107398;1245;72506;-75
2024/01/28 03:43:13;;;;;;;57.40;21.30;;;;;;;0.50;100.00;102144.63;107379;1247;69244;-76
2024/01/28 03:45:42;;;;;;;61.50;21.70;;;;;;;0.42;100.00;102142.64;107412;1248;71863;-75
2024/01/28 03:48:11;;;;;;;72.70;23.10;;;;;;;0.43;100.00;102143.83;107427;1245;59585;-75
2024/01/28 03:50:40;;;;;;;70.40;26.60;;;;;;;0.45;100.00;102149.46;107414;1251;59056;-75
2024/01/28 03:53:09;;;;;;;63.60;23.80;;;;;;;0.45;100.00;102149.98;107426;1255;70785;-75
2024/01/28 03:55:37;;;;;;;84.50;27.10;;;;;;;0.42;100.00;102153.27;107355;1245;71251;-75
2024/01/28 03:58:06;;;;;;;61.40;24.30;;;;;;;0.45;100.00;102154.27;107385;1246;69398;-75
2024/01/28 04:00:35;;;;;;;80.30;28.40;;;;;;;0.42;100.00;102158.23;107297;1246;70913;-77
2024/01/28 04:03:05;;;;;;;58.60;21.20;;;;;;;0.41;100.00;102160.98;107449;1254;59896;-77
2024/01/28 04:05:34;;;;;;;70.20;24.70;;;;;;;0.45;100.00;102164.38;107416;1248;61147;-77
2024/01/28 04:08:03;;;;;;;68.40;23.30;;;;;;;0.48;100.00;102170.70;107362;1245;73988;-76
2024/01/28 04:10:32;;;;;;;63.10;25.80;;;;;;;0.40;100.00;102178.65;107409;1244;71855;-75
2024/01/28 04:13:00;;;;;;;59.00;23.20;;;;;;;0.42;100.00;102178.11;107437;1245;70619;-76
2024/01/28 04:15:29;;;;;;;70.00;25.30;;;;;;;0.46;100.00;102181.67;107548;1251;72320;-76
2024/01/28 04:17:58;;;;;;;64.70;23.40;;;;;;;0.49;100.00;102181.66;107385;1252;59741;-78
2024/01/28 04:20:27;;;;;;;62.20;23.80;;;;;;;0.47;100.00;102189.04;107306;1247;59484;-76
2024/01/28 04:22:56;;;;;;;66.80;26.10;;;;;;;0.41;100.00;102194.05;107311;1248;71646;-76
2024/01/28 04:25:25;;;;;;;66.20;24.70;;;;;;;0.40;100.00;102196.65;107505;1246;70278;-77
2024/01/28 04:27:54;;;;;;;65.30;24.80;;;;;;;0.42;100.00;102194.40;107479;1245;70652;-78
2024/01/28 04:30:22;;;;;;;66.70;24.30;;;;;;;0.44;100.00;102196.61;107220;1254;73426;-76
2024/01/28 04:32:51;;;;;;;70.80;27.30;;;;;;;0.51;100.00;102200.34;107475;1244;59866;-74
2024/01/28 04:35:20;;;;;;;71.00;25.70;;;;;;;0.45;100.00;102202.27;107568;1241;59430;-75
2024/01/28 04:37:49;;;;;;;67.90;26.20;;;;;;;0.45;100.00;102209.28;107533;1248;71636;-76
2024/01/28 04:40:18;;;;;;;72.80;27.50;;;;;;;0.44;100.00;102210.15;107578;1241;72720;-77
2024/01/28 04:42:47;;;;;;;67.30;26.00;;;;;;;0.51;100.00;102212.52;107953;1244;69106;-74
2024/01/28 04:45:16;;;;;;;69.70;26.30;;;;;;;0.58;100.00;102215.20;107525;1245;72788;-75
2024/01/28 04:47:45;;;;;;;73.20;26.90;;;;;;;0.55;100.00;102214.20;107492;1255;62342;-76
2024/01/28 04:50:14;;;;;;;74.50;27.00;;;;;;;0.54;100.00;102218.48;107483;1241;61415;-76
2024/01/28 04:52:43;;;;;;;71.40;26.00;;;;;;;0.48;100.00;102229.66;107455;1245;71193;-76
2024/01/28 04:55:12;;;;;;;72.10;27.50;;;;;;;0.50;100.00;102233.60;107384;1253;72093;-77
2024/01/28 04:57:40;;;;;;;69.90;26.80;;;;;;;0.44;100.00;102231.75;107149;1248;70733;-78
2024/01/28 05:00:11;;;;;;;67.80;25.90;;;;;;;0.52;100.00;102240.45;107406;1255;73294;-77
2024/01/28 05:02:40;;;;;;;64.60;24.90;;;;;;;0.50;100.00;102237.70;107382;1244;61082;-77
2024/01/28 05:05:08;;;;;;;63.50;25.90;;;;;;;0.42;100.00;102231.59;107341;1241;61361;-75
2024/01/28 05:07:37;;;;;;;63.30;25.10;;;;;;;0.50;100.00;102235.48;107544;1251;73001;-76
2024/01/28 05:10:09;;;;;;;68.00;25.50;;;;;;;0.53;100.00;102232.55;108017;1245;69366;-78
2024/01/28 05:12:38;;;;;;;67.10;28.70;;;;;;;0.53;100.00;102244.55;107838;1244;69713;-76
2024/01/28 05:15:08;;;;;;;63.20;26.80;;;;;;;0.57;100.00;102244.36;107320;1245;74045;-77
2024/01/28 05:17:37;;;;;;;64.10;24.00;;;;;;;0.52;100.00;102247.64;107339;1244;60780;-75
2024/01/28 05:20:09;;;;;;;68.50;25.10;;;;;;;0.55;100.00;102258.77;107303;1245;58662;-76
2024/01/28 05:22:39;;;;;;;66.20;23.40;;;;;;;0.56;100.00;102258.25;107267;1245;74445;-76
2024/01/28 05:25:09;;;;;;;52.10;23.80;;;;;;;0.47;100.00;102260.20;107275;1244;72563;-77
2024/01/28 05:27:39;;;;;;;68.30;24.00;;;;;;;0.35;100.00;102260.77;107240;1241;69154;-78
2024/01/28 05:30:09;;;;;;;70.40;25.30;;;;;;;0.39;100.00;102262.80;107242;1241;73698;-78
2024/01/28 05:32:39;;;;;;;68.20;24.80;;;;;;;0.42;100.00;102264.33;107255;1244;61143;-75
2024/01/28 05:35:08;;;;;;;72.20;23.80;;;;;;;0.49;100.00;102276.64;107252;1241;60216;-79
2024/01/28 05:37:37;;;;;;;77.00;27.30;;;;;;;0.51;100.00;102282.29;107250;1241;72607;-76
2024/01/28 05:40:08;;;;;;;74.20;24.90;;;;;;;0.47;100.00;102281.28;107038;1248;70113;-76
2024/01/28 05:42:37;;;;;;;83.00;29.30;;;;;;;0.41;100.00;102288.33;107357;1244;68408;-76
2024/01/28 05:45:06;;;;;;;76.40;27.80;;;;;;;0.42;100.00;102294.84;107586;1244;72997;-77
2024/01/28 05:47:36;;;;;;;80.90;28.70;;;;;;;0.40;100.00;102301.89;107216;1241;61111;-76
2024/01/28 05:50:05;;;;;;;68.70;27.00;;;;;;;0.40;100.00;102307.02;107362;1251;60142;-77
2024/01/28 05:52:34;;;;;;;72.90;25.90;;;;;;;0.34;100.00;102309.79;107423;1244;72538;-76
2024/01/28 05:55:03;;;;;;;77.20;28.00;;;;;;;0.33;100.00;102316.30;107433;1246;72014;-76
2024/01/28 05:57:32;;;;;;;83.40;28.70;;;;;;;0.24;100.00;102328.52;107480;1241;70282;-75
2024/01/28 06:00:01;;;;;;;79.30;31.60;;;;;;;0.24;100.00;102334.69;107458;1241;74679;-75
2024/01/28 06:02:36;;;;;;;84.20;31.80;;;;;;;0.27;100.00;102339.82;107446;1241;58904;-76
2024/01/28 06:05:05;;;;;;;73.30;28.50;;;;;;;0.37;100.00;102332.91;107273;1255;60183;-77
2024/01/28 06:07:34;;;;;;;82.70;29.30;;;;;;;0.33;100.00;102351.28;107257;1249;71750;-76
2024/01/28 06:10:03;;;;;;;82.20;26.20;;;;;;;0.38;100.00;102345.77;107450;1247;71473;-76
2024/01/28 06:12:32;;;;;;;74.30;28.80;;;;;;;0.36;100.00;102340.98;107406;1251;70701;-77
2024/01/28 06:15:06;;;;;;;77.50;29.40;;;;;;;0.26;100.00;102351.13;107454;1241;74087;-77
2024/01/28 06:17:36;;;;;;;76.50;28.20;;;;;;;0.30;100.00;102363.11;107576;1255;60981;-78
2024/01/28 06:20:08;;;;;;;83.80;30.60;;;;;;;0.30;100.00;102367.39;107475;1244;58925;-79
2024/01/28 06:22:37;;;;;;;81.60;31.30;;;;;;;0.17;100.00;102368.64;107516;1244;73458;-77
2024/01/28 06:25:07;;;;;;;109.20;40.50;;;;;;;0.29;100.00;102368.09;107458;1241;71674;-78
2024/01/28 06:27:36;;;;;;;86.80;31.60;;;;;;;0.29;100.00;102367.22;107537;1245;68549;-79
2024/01/28 06:30:06;;;;;;;87.10;31.60;;;;;;;0.27;100.00;102361.58;107534;1246;71796;-77
2024/01/28 06:32:36;;;;;;;87.00;32.00;;;;;;;0.25;100.00;102354.72;107424;1241;62459;-78
2024/01/28 06:35:05;;;;;;;92.80;32.90;;;;;;;0.39;100.00;102353.83;107519;1254;60803;-78
2024/01/28 06:37:35;;;;;;;90.70;29.20;;;;;;;0.47;100.00;102353.80;107496;1244;71952;-80
2024/01/28 06:40:06;;;;;;;85.90;30.60;;;;;;;0.52;100.00;102355.66;107472;1245;69469;-80
2024/01/28 06:42:36;;;;;;;92.70;33.70;;;;;;;0.57;100.00;102366.43;107453;1246;69648;-80
2024/01/28 06:45:07;;;;;;;89.20;30.60;;;;;;;0.61;100.00;102373.45;107897;1245;73621;-78
2024/01/28 06:47:37;;;;;;;89.90;31.40;;;;;;;0.60;100.00;102376.71;107458;1245;62633;-77
2024/01/28 06:50:07;;;;;;;89.30;33.10;;;;;;;0.73;100.00;102381.80;107545;1244;61445;-78
2024/01/28 06:52:36;;;;;;;87.80;32.00;;;;;;;0.77;100.00;102391.71;107485;1244;71250;-76
2024/01/28 06:55:05;;;;;;;94.20;34.20;;;;;;;0.83;100.00;102394.10;107381;1241;70149;-75
2024/01/28 06:57:36;;;;;;;99.10;34.30;;;;;;;0.87;100.00;102401.63;107361;1243;70338;-75
2024/01/28 07:00:10;;;;;;;101.50;35.50;;;;;;;0.92;100.00;102400.39;107416;1245;73729;-76
2024/01/28 07:02:40;;;;;;;103.00;36.20;;;;;;;0.96;100.00;102405.35;107249;1249;62765;-74
2024/01/28 07:05:09;;;;;;;99.10;35.30;;;;;;;0.97;100.00;102407.73;107204;1245;60127;-75
2024/01/28 07:07:39;;;;;;;90.80;33.90;;;;;;;0.99;100.00;102409.78;107316;1255;71924;-75
2024/01/28 07:10:09;;;;;;;95.30;33.40;;;;;;;0.90;100.00;102409.99;107206;1248;71344;-76
2024/01/28 07:12:39;;;;;;;103.60;38.80;;;;;;;0.81;100.00;102423.95;107312;1241;71002;-75
2024/01/28 07:15:09;;;;;;;102.10;38.10;;;;;;;1.04;100.00;102426.05;107207;1244;71722;-75
2024/01/28 07:17:38;;;;;;;102.10;37.70;;;;;;;1.25;100.00;102423.87;107334;1255;60823;-75
2024/01/28 07:20:09;;;;;;;106.30;36.80;;;;;;;1.31;100.00;102420.23;107431;1244;61134;-76
2024/01/28 07:22:38;;;;;;;104.80;39.20;;;;;;;1.28;100.00;102413.90;107599;1244;71043;-75
2024/01/28 07:25:08;;;;;;;99.30;37.40;;;;;;;1.04;100.00;102416.61;107660;1253;69510;-76
2024/01/28 07:27:37;;;;;;;98.20;37.20;;;;;;;1.19;100.00;102415.85;107419;1241;68484;-78
2024/01/28 07:30:07;;;;;;;96.30;38.70;;;;;;;1.35;100.00;102421.41;107504;1244;71166;-76
2024/01/28 07:32:37;;;;;;;102.10;40.30;;;;;;;1.54;100.00;102426.77;107528;1244;60302;-75
2024/01/28 07:35:07;;;;;;;103.50;38.70;;;;;;;1.65;100.00;102428.39;107479;1244;60627;-75
2024/01/28 07:37:36;;;;;;;99.20;37.40;;;;;;;1.65;100.00;102430.81;107445;1241;71533;-76
2024/01/28 07:40:06;;;;;;;96.10;38.60;;;;;;;1.75;100.00;102430.54;107507;1245;69467;-75
2024/01/28 07:42:36;;;;;;;100.20;40.40;;;;;;;1.65;100.00;102434.06;107509;1241;70457;-76
2024/01/28 07:45:05;;;;;;;97.10;37.60;;;;;;;1.77;100.00;102447.20;107169;1248;72948;-77
2024/01/28 07:47:36;;;;;;;81.10;38.30;;;;;;;1.72;100.00;102456.52;107259;1244;60328;-74
2024/01/28 07:50:10;;;;;;;;;;;;;;;1.70;100.00;102458.74;107255;1255;59092;-76
2024/01/28 07:52:40;;;;;;;107.10;38.30;;;;;;;1.65;100.00;102462.73;107335;1245;73855;-79
2024/01/28 07:55:13;;;;;;;102.30;35.60;;;;;;;1.78;100.00;102462.98;107055;1245;72753;-78
2024/01/28 07:57:42;;;;;;;98.00;29.90;;;;;;;1.81;100.00;102462.62;107044;1249;68471;-79
2024/01/28 08:00:13;;;;;;;96.60;35.40;;;;;;;1.84;100.00;102479.77;107001;1245;448181;-78
2024/01/28 08:02:43;;;;;;;80.70;28.30;;;;;;;1.78;100.00;102484.46;107158;1247;60776;-76
2024/01/28 08:11:26;;;;;;;69.50;25.40;;;;;;;1.72;100.00;102484.34;104197;1280;601325;-85
2024/01/28 08:13:56;;;;;;;58.40;19.50;;;;;;;1.82;100.00;102483.23;106217;1256;62091;-85
2024/01/28 08:16:25;;;;;;;81.10;28.10;;;;;;;1.85;100.00;102488.53;106919;1252;59443;-86
2024/01/28 08:18:56;;;;;;;87.40;30.70;;;;;;;1.95;100.00;102493.62;106929;1259;73044;-85
2024/01/28 08:21:25;;;;;;;93.70;33.20;;;;;;;2.02;100.00;102495.27;107050;1251;70700;-86
2024/01/28 08:23:55;;;;;;;88.40;30.80;;;;;;;2.09;100.00;102496.40;106627;1247;439899;-84
2024/01/28 08:26:24;;;;;;;100.20;38.40;;;;;;;2.21;100.00;102501.64;107269;1257;73827;-82
2024/01/28 08:28:54;;;;;;;85.50;33.00;;;;;;;2.06;100.00;102502.63;107252;1249;59466;-85
2024/01/28 08:31:26;;;;;;;94.70;34.30;;;;;;;2.32;100.00;102504.80;107364;1257;60199;-86
2024/01/28 08:34:00;;;;;;;82.70;34.90;;;;;;;2.30;100.00;102512.05;108388;1243;71481;-84
2024/01/28 08:36:30;;;;;;;93.10;36.00;;;;;;;2.31;100.00;102514.77;107264;1244;71854;-85
2024/01/28 08:39:00;;;;;;;87.70;35.00;;;;;;;2.41;100.00;102520.88;107282;1257;71547;-86
2024/01/28 08:41:31;;;;;;;81.40;35.00;;;;;;;2.52;100.00;102521.80;107396;1255;73037;-86
2024/01/28 08:44:05;;;;;;;82.80;33.10;;;;;;;2.76;100.00;102532.73;107510;1241;61445;-84
2024/01/28 08:46:41;;;;;;;86.80;33.30;;;;;;;2.67;100.00;102535.92;107343;1245;59962;-87
2024/01/28 08:49:11;;;;;;;93.10;32.20;;;;;;;2.86;100.00;102544.50;107335;1242;71895;-87
2024/01/28 08:51:40;;;;;;;76.70;29.60;;;;;;;2.92;100.00;102551.14;107291;1244;70227;-79
2024/01/28 08:54:12;;;;;;;71.90;29.70;;;;;;;2.88;100.00;102555.33;107048;1248;69730;-73
2024/01/28 08:56:41;;;;;;;74.10;28.90;;;;;;;2.58;100.00;102554.59;107142;1245;73376;-75
2024/01/28 08:59:13;;;;;;;69.40;26.20;;;;;;;2.40;100.00;102553.05;107178;1245;61637;-73
2024/01/28 09:01:44;;;;;;;68.50;25.60;;;;;;;2.29;100.00;102556.58;107109;1244;61160;-72
2024/01/28 09:04:14;;;;;;;65.60;26.40;;;;;;;1.97;100.00;102562.14;107087;1256;69868;-73
2024/01/28 09:06:44;;;;;;;56.50;23.60;;;;;;;1.97;100.00;102559.75;107264;1245;72754;-74
2024/01/28 09:09:13;;;;;;;68.50;27.30;;;;;;;1.88;100.00;102568.40;107183;1244;71040;-73
2024/01/28 09:11:42;;;;;;;79.70;29.80;;;;;;;2.03;100.00;102575.88;107097;1245;71569;-75
2024/01/28 09:14:12;;;;;;;57.10;20.00;;;;;;;2.00;100.00;102578.63;107142;1242;60496;-74
2024/01/28 09:16:42;;;;;;;73.70;27.90;;;;;;;1.96;100.00;102589.15;107223;1250;61504;-74
2024/01/28 09:19:11;;;;;;;72.80;27.70;;;;;;;1.87;100.00;102586.80;107173;1245;73187;-74
2024/01/28 09:21:41;;;;;;;66.80;26.20;;;;;;;1.89;100.00;102587.31;107091;1244;71752;-74
2024/01/28 09:24:11;;;;;;;72.90;28.20;;;;;;;2.02;100.00;102589.45;106945;1248;71083;-73
2024/01/28 09:27:23;;;;;;;72.60;29.90;;;;;;;2.15;100.00;102589.36;103928;1290;600091;-83
2024/01/28 09:29:52;;;;;;;74.40;29.50;;;;;;;2.14;100.00;102590.05;106849;1260;61814;-75
2024/01/28 09:32:21;;;;;;;74.00;27.60;;;;;;;2.23;100.00;102595.84;106806;1247;61824;-75
2024/01/28 09:34:51;;;;;;;77.20;28.30;;;;;;;2.10;100.00;102599.02;106762;1248;73457;-75
2024/01/28 09:37:20;;;;;;;85.50;30.70;;;;;;;2.02;100.00;102601.48;106795;1251;70585;-72
2024/01/28 09:39:49;;;;;;;82.40;29.80;;;;;;;2.01;100.00;102601.48;106618;1251;217014;-72
2024/01/28 09:42:41;;;;;;;78.40;31.60;;;;;;;1.83;100.00;102602.98;106808;1256;71862;-72
2024/01/28 09:45:11;;;;;;;80.40;31.60;;;;;;;1.95;100.00;102603.94;107010;1249;62028;-73
2024/01/28 09:47:41;;;;;;;84.20;32.00;;;;;;;1.97;100.00;102605.64;107029;1258;61063;-70
2024/01/28 09:50:12;;;;;;;82.00;31.20;;;;;;;2.08;100.00;102603.16;106949;1244;69703;-74
2024/01/28 09:52:41;;;;;;;65.10;31.00;;;;;;;2.03;100.00;102609.03;106822;1252;72930;-71
2024/01/28 09:55:10;;;;;;;74.00;30.90;;;;;;;1.72;100.00;102605.62;106973;1248;69548;-72
2024/01/28 09:57:39;;;;;;;75.60;27.10;;;;;;;2.03;100.00;102606.46;106896;1257;74235;-71
2024/01/28 10:00:10;;;;;;;69.60;30.50;;;;;;;2.00;100.00;102606.66;107484;1250;62906;-71
2024/01/28 10:02:40;;;;;;;75.40;29.90;;;;;;;2.02;100.00;102604.75;107005;1247;59235;-71
2024/01/28 10:05:14;;;;;;;71.40;31.70;;;;;;;2.22;100.00;102597.21;106964;1248;73182;-71
2024/01/28 10:07:47;;;;;;;68.90;28.40;;;;;;;2.23;100.00;102602.20;106982;1247;72216;-72
2024/01/28 10:10:18;;;;;;;76.20;30.90;;;;;;;2.19;100.00;102598.09;106971;1258;70173;-72
2024/01/28 10:12:49;;;;;;;70.80;27.20;;;;;;;2.04;100.00;102595.63;106851;1252;72260;-72
2024/01/28 10:15:23;;;;;;;76.70;29.70;;;;;;;2.10;100.00;102607.27;107048;1247;61342;-71
2024/01/28 10:17:52;;;;;;;68.70;24.00;;;;;;;2.17;100.00;102611.69;106984;1246;59795;-69
2024/01/28 10:20:28;;;;;;;85.60;31.70;;;;;;;2.28;100.00;102613.48;107285;1244;70244;-71
2024/01/28 10:22:57;;;;;;;81.30;31.20;;;;;;;2.21;100.00;102620.59;107221;1256;61484;-72
2024/01/28 10:25:26;;;;;;;79.30;31.20;;;;;;;2.40;100.00;102621.83;107432;1244;68729;-69
2024/01/28 10:27:55;;;;;;;83.80;32.80;;;;;;;2.32;100.00;102620.69;107300;1251;62911;-69
2024/01/28 10:30:24;;;;;;;72.20;28.20;;;;;;;2.24;100.00;102625.75;107149;1244;60435;-72
2024/01/28 10:32:53;;;;;;;72.50;30.60;;;;;;;1.97;100.00;102626.94;107155;1245;61097;-69
2024/01/28 10:35:24;;;;;;;69.80;31.00;;;;;;;2.04;100.00;102637.22;107146;1244;71106;-70
2024/01/28 10:37:53;;;;;;;74.80;28.50;;;;;;;2.06;100.00;102637.19;106942;1246;69560;-70
2024/01/28 10:40:35;;;;;;;78.20;32.70;;;;;;;2.22;100.00;102639.52;107116;1245;68888;-72
2024/01/28 10:43:11;;;;;;;72.80;30.40;;;;;;;2.00;100.00;102630.02;107089;1254;71861;-68
2024/01/28 10:45:44;;;;;;;81.30;32.00;;;;;;;2.22;100.00;102641.05;107097;1244;61428;-71
2024/01/28 10:48:18;;;;;;;83.30;33.80;;;;;;;2.16;100.00;102641.27;106922;1248;59296;-72
2024/01/28 10:50:48;;;;;;;73.60;31.30;;;;;;;2.29;100.00;102644.61;107155;1254;74117;-72
2024/01/28 10:53:18;;;;;;;66.50;29.50;;;;;;;2.23;100.00;102645.34;107001;1246;72531;-72
2024/01/28 10:55:48;;;;;;;68.10;26.90;;;;;;;2.22;100.00;102653.44;107197;1244;68935;-71
2024/01/28 10:58:16;;;;;;;71.00;28.50;;;;;;;2.22;100.00;102654.80;107201;1245;72619;-70
2024/01/28 11:00:45;;;;;;;67.00;27.70;;;;;;;2.34;100.00;102653.86;107159;1244;60269;-70
2024/01/28 11:03:15;;;;;;;70.30;30.80;;;;;;;2.29;100.00;102651.84;107308;1252;60134;-70
2024/01/28 11:05:46;;;;;;;186.00;70.50;;;;;;;2.11;100.00;102657.63;107062;1245;73235;-70
2024/01/28 11:08:15;;;;;;;72.30;31.00;;;;;;;2.23;100.00;102633.14;107207;1245;70937;-69
2024/01/28 11:10:44;;;;;;;80.30;33.40;;;;;;;2.49;100.00;102657.02;107113;1252;71317;-74
2024/01/28 11:13:14;;;;;;;82.80;32.20;;;;;;;2.66;100.00;102657.91;107429;1249;71612;-75
2024/01/28 11:15:43;;;;;;;72.50;29.20;;;;;;;2.72;100.00;102660.27;107299;1246;62052;-71
